Airfield :
LOGIN :

Register | Disclaimer

   EN    FR    IT 

 










Legend :    VFR   Marginal VFR   IFR   Intensive IFR   Very Intensive IFR
Visi :
Ceiling :
>= 8 km
>= 3000ft
5 to 8 km
1000 to 3000 ft
1500m to 5 km
500 to 1000 ft
800 to 1500m
200 to 500 ft
< 800m
< 200 ft
Symbols :   Thunderstorms  Fog  Heavy snow  Heavy precipitations  Wind > 20 kt
SIGMETs :     Misc.  Thunderstorms  Icing  Turbulence  Mountain Waves  Volcanic Ashes






- Airport Elevation : 39 ft
- IATA code : ANR


EBAW - Anvers / Antwerpen Deurne

CURRENT METAR :
  • 170650Z 12002KT 0800 R11/0800N R29/1300D FZFG FEW039 M00/M01 Q1012 BECMG 3000 BR

EXPIRED METARs :
  • 170620Z VRB01KT 0900 R11/0650D R29/0750D FZFG NSC M01/M02 Q1011 TEMPO 0500 FZFG
  • 170550Z 11002KT 0900 R11/0900D R29/1900N FZFG NSC M01/M02 Q1011 TEMPO 0500 FZFG
  • 170520Z AUTO 13002KT 0500 R11/0600N R29/0800D FZFG NCD M02/M02 Q1011
  • 170450Z AUTO VRB01KT 0450 R11/0550U R29/0650N FZFG NCD M02/M02 Q1010
  • 170420Z AUTO VRB01KT 0550 R11/0900D R29/0650D FZFG NCD M01/M01 Q1011

TAF COR TAF EBAW
Valid from the 17 at 06:00 until the 17 at 15:00 UTC


170511Z 1706/1715 09003KT 8000 FEW035
TEMPO 1706/1709 3000 BR
PROB40
TEMPO 1706/1708 0500 FZFG



MET'MAP, your aeronautical weather chart ! - Copyright ORBIFLY December 2007 - Disclaimer

ORBIFLY MET'MAP TEAM :

Programming & Development : Alexandra Zaïnal
Concept & Development : Baudouin d'Aumeries
Co-Development & Prog : Marc-Olivier Méhu
Technical & hardware support : Manuel Goepfert

Contact : metmap@orbifly.com




SOURCES & CREDITS :

   NOAA